sensor_id;sensor_type;location;lat;lon;timestamp;temperature;humidity
33837;DHT22;20140;49.356;8.812;2023-05-16T00:01:44;11.60;99.90
33837;DHT22;20140;49.356;8.812;2023-05-16T00:04:09;11.60;99.90
33837;DHT22;20140;49.356;8.812;2023-05-16T00:06:35;11.70;99.90
33837;DHT22;20140;49.356;8.812;2023-05-16T00:09:00;11.70;99.90
33837;DHT22;20140;49.356;8.812;2023-05-16T00:11:26;11.90;99.90
33837;DHT22;20140;49.356;8.812;2023-05-16T00:13:51;12.00;99.90
33837;DHT22;20140;49.356;8.812;2023-05-16T00:16:17;12.10;99.90
33837;DHT22;20140;49.356;8.812;2023-05-16T00:18:46;12.20;99.90
33837;DHT22;20140;49.356;8.812;2023-05-16T00:21:11;12.40;99.90
33837;DHT22;20140;49.356;8.812;2023-05-16T00:23:37;12.50;99.90
33837;DHT22;20140;49.356;8.812;2023-05-16T00:26:03;12.60;99.90
33837;DHT22;20140;49.356;8.812;2023-05-16T00:28:28;12.70;99.90
33837;DHT22;20140;49.356;8.812;2023-05-16T00:30:54;12.70;99.90
33837;DHT22;20140;49.356;8.812;2023-05-16T00:33:20;12.70;99.90
33837;DHT22;20140;49.356;8.812;2023-05-16T00:35:45;12.60;99.90
33837;DHT22;20140;49.356;8.812;2023-05-16T00:38:11;12.70;99.90
33837;DHT22;20140;49.356;8.812;2023-05-16T00:40:37;12.70;99.90
33837;DHT22;20140;49.356;8.812;2023-05-16T00:43:03;12.70;99.90
33837;DHT22;20140;49.356;8.812;2023-05-16T00:45:28;12.70;99.90
33837;DHT22;20140;49.356;8.812;2023-05-16T00:47:54;12.70;99.90
33837;DHT22;20140;49.356;8.812;2023-05-16T00:50:19;12.70;99.90
33837;DHT22;20140;49.356;8.812;2023-05-16T00:52:45;12.70;99.90
33837;DHT22;20140;49.356;8.812;2023-05-16T00:55:11;12.70;99.90
33837;DHT22;20140;49.356;8.812;2023-05-16T00:57:38;12.70;99.90
33837;DHT22;20140;49.356;8.812;2023-05-16T01:00:06;12.70;99.90
33837;DHT22;20140;49.356;8.812;2023-05-16T01:02:35;12.70;99.90
33837;DHT22;20140;49.356;8.812;2023-05-16T01:05:01;12.70;99.90
33837;DHT22;20140;49.356;8.812;2023-05-16T01:07:27;12.70;99.90
33837;DHT22;20140;49.356;8.812;2023-05-16T01:09:53;12.70;99.90
33837;DHT22;20140;49.356;8.812;2023-05-16T01:12:27;12.70;99.90
33837;DHT22;20140;49.356;8.812;2023-05-16T01:20:42;12.60;99.90
33837;DHT22;20140;49.356;8.812;2023-05-16T01:23:46;12.70;99.90
33837;DHT22;20140;49.356;8.812;2023-05-16T01:26:25;12.80;99.90
33837;DHT22;20140;49.356;8.812;2023-05-16T01:28:52;12.90;99.90
33837;DHT22;20140;49.356;8.812;2023-05-16T01:31:18;12.90;99.90
33837;DHT22;20140;49.356;8.812;2023-05-16T01:33:44;12.80;99.90
33837;DHT22;20140;49.356;8.812;2023-05-16T01:42:04;12.90;99.90
33837;DHT22;20140;49.356;8.812;2023-05-16T01:44:55;12.90;99.90
33837;DHT22;20140;49.356;8.812;2023-05-16T01:47:23;12.80;99.90
33837;DHT22;20140;49.356;8.812;2023-05-16T01:50:09;12.70;99.90
33837;DHT22;20140;49.356;8.812;2023-05-16T01:52:49;12.60;99.90
33837;DHT22;20140;49.356;8.812;2023-05-16T01:57:55;12.50;99.90
33837;DHT22;20140;49.356;8.812;2023-05-16T02:00:22;12.50;99.90
33837;DHT22;20140;49.356;8.812;2023-05-16T02:02:47;12.30;99.90
33837;DHT22;20140;49.356;8.812;2023-05-16T02:05:13;12.40;99.90
33837;DHT22;20140;49.356;8.812;2023-05-16T02:07:38;12.50;99.90
33837;DHT22;20140;49.356;8.812;2023-05-16T02:10:04;12.60;99.90
33837;DHT22;20140;49.356;8.812;2023-05-16T02:12:30;12.40;99.90
33837;DHT22;20140;49.356;8.812;2023-05-16T02:14:56;12.50;99.90
33837;DHT22;20140;49.356;8.812;2023-05-16T02:17:21;12.50;99.90
33837;DHT22;20140;49.356;8.812;2023-05-16T02:19:47;12.60;99.90
33837;DHT22;20140;49.356;8.812;2023-05-16T02:22:12;12.60;99.90
33837;DHT22;20140;49.356;8.812;2023-05-16T02:24:38;12.60;99.90
33837;DHT22;20140;49.356;8.812;2023-05-16T02:27:03;12.60;99.90
33837;DHT22;20140;49.356;8.812;2023-05-16T02:29:29;12.60;99.90
33837;DHT22;20140;49.356;8.812;2023-05-16T02:31:55;12.60;99.90
33837;DHT22;20140;49.356;8.812;2023-05-16T02:34:20;12.50;99.90
33837;DHT22;20140;49.356;8.812;2023-05-16T02:36:46;12.60;99.90
33837;DHT22;20140;49.356;8.812;2023-05-16T02:39:11;12.60;99.90
33837;DHT22;20140;49.356;8.812;2023-05-16T02:41:38;12.60;99.90
33837;DHT22;20140;49.356;8.812;2023-05-16T02:44:03;12.60;99.90
33837;DHT22;20140;49.356;8.812;2023-05-16T02:46:31;12.70;99.90
33837;DHT22;20140;49.356;8.812;2023-05-16T02:48:57;12.80;99.90
33837;DHT22;20140;49.356;8.812;2023-05-16T02:51:25;12.80;99.90
33837;DHT22;20140;49.356;8.812;2023-05-16T02:53:51;12.80;99.90
33837;DHT22;20140;49.356;8.812;2023-05-16T02:56:17;12.70;99.90
33837;DHT22;20140;49.356;8.812;2023-05-16T02:58:46;12.70;99.90
33837;DHT22;20140;49.356;8.812;2023-05-16T03:01:12;12.80;99.90
33837;DHT22;20140;49.356;8.812;2023-05-16T03:03:38;12.70;99.90
33837;DHT22;20140;49.356;8.812;2023-05-16T03:06:03;12.70;99.90
33837;DHT22;20140;49.356;8.812;2023-05-16T03:08:29;12.70;99.90
33837;DHT22;20140;49.356;8.812;2023-05-16T03:10:55;12.60;99.90
33837;DHT22;20140;49.356;8.812;2023-05-16T03:13:20;12.60;99.90
33837;DHT22;20140;49.356;8.812;2023-05-16T03:15:47;12.60;99.90
33837;DHT22;20140;49.356;8.812;2023-05-16T03:18:12;12.60;99.90
33837;DHT22;20140;49.356;8.812;2023-05-16T03:20:38;12.50;99.90
33837;DHT22;20140;49.356;8.812;2023-05-16T03:23:03;12.50;99.90
33837;DHT22;20140;49.356;8.812;2023-05-16T03:25:32;12.40;99.90
33837;DHT22;20140;49.356;8.812;2023-05-16T03:27:58;12.40;99.90
33837;DHT22;20140;49.356;8.812;2023-05-16T03:30:23;12.30;99.90
33837;DHT22;20140;49.356;8.812;2023-05-16T03:32:51;12.30;99.90
33837;DHT22;20140;49.356;8.812;2023-05-16T03:35:17;12.20;99.90
33837;DHT22;20140;49.356;8.812;2023-05-16T03:37:42;12.20;99.90
33837;DHT22;20140;49.356;8.812;2023-05-16T03:40:11;12.20;99.90
33837;DHT22;20140;49.356;8.812;2023-05-16T03:42:37;12.10;99.90
33837;DHT22;20140;49.356;8.812;2023-05-16T03:45:04;12.20;99.90
33837;DHT22;20140;49.356;8.812;2023-05-16T03:47:31;12.20;99.90
33837;DHT22;20140;49.356;8.812;2023-05-16T03:49:56;12.20;99.90
33837;DHT22;20140;49.356;8.812;2023-05-16T03:52:22;12.10;99.90
33837;DHT22;20140;49.356;8.812;2023-05-16T03:54:47;12.10;99.90
33837;DHT22;20140;49.356;8.812;2023-05-16T03:57:16;12.10;99.90
33837;DHT22;20140;49.356;8.812;2023-05-16T03:59:41;12.20;99.90
33837;DHT22;20140;49.356;8.812;2023-05-16T04:02:07;12.20;99.90
33837;DHT22;20140;49.356;8.812;2023-05-16T04:04:33;12.20;99.90
33837;DHT22;20140;49.356;8.812;2023-05-16T04:06:59;12.20;99.90
33837;DHT22;20140;49.356;8.812;2023-05-16T04:09:24;12.10;99.90
33837;DHT22;20140;49.356;8.812;2023-05-16T04:11:50;12.20;99.90
33837;DHT22;20140;49.356;8.812;2023-05-16T04:14:16;12.10;99.90
33837;DHT22;20140;49.356;8.812;2023-05-16T04:16:41;12.30;99.90
33837;DHT22;20140;49.356;8.812;2023-05-16T04:19:07;12.30;99.90
33837;DHT22;20140;49.356;8.812;2023-05-16T04:21:32;12.30;99.90
33837;DHT22;20140;49.356;8.812;2023-05-16T04:23:58;12.20;99.90
33837;DHT22;20140;49.356;8.812;2023-05-16T04:26:24;12.10;99.90
33837;DHT22;20140;49.356;8.812;2023-05-16T04:28:50;12.10;99.90
33837;DHT22;20140;49.356;8.812;2023-05-16T04:31:15;12.20;99.90
33837;DHT22;20140;49.356;8.812;2023-05-16T04:33:41;12.20;99.90
33837;DHT22;20140;49.356;8.812;2023-05-16T04:36:07;12.20;99.90
33837;DHT22;20140;49.356;8.812;2023-05-16T04:38:32;12.10;99.90
33837;DHT22;20140;49.356;8.812;2023-05-16T04:40:58;12.10;99.90
33837;DHT22;20140;49.356;8.812;2023-05-16T04:43:24;12.10;99.90
33837;DHT22;20140;49.356;8.812;2023-05-16T04:45:49;12.10;99.90
33837;DHT22;20140;49.356;8.812;2023-05-16T04:48:15;12.10;99.90
33837;DHT22;20140;49.356;8.812;2023-05-16T04:50:41;12.10;99.90
33837;DHT22;20140;49.356;8.812;2023-05-16T04:53:07;12.10;99.90
33837;DHT22;20140;49.356;8.812;2023-05-16T04:55:32;12.10;99.90
33837;DHT22;20140;49.356;8.812;2023-05-16T04:57:58;12.10;99.90
33837;DHT22;20140;49.356;8.812;2023-05-16T05:00:23;12.10;99.90
33837;DHT22;20140;49.356;8.812;2023-05-16T05:02:49;12.10;99.90
33837;DHT22;20140;49.356;8.812;2023-05-16T05:05:14;12.20;99.90
33837;DHT22;20140;49.356;8.812;2023-05-16T05:07:40;12.20;99.90
33837;DHT22;20140;49.356;8.812;2023-05-16T05:10:06;12.10;99.90
33837;DHT22;20140;49.356;8.812;2023-05-16T05:12:33;12.00;99.90
33837;DHT22;20140;49.356;8.812;2023-05-16T05:14:59;12.10;99.90
33837;DHT22;20140;49.356;8.812;2023-05-16T05:17:25;12.10;99.90
33837;DHT22;20140;49.356;8.812;2023-05-16T05:19:50;12.10;99.90
33837;DHT22;20140;49.356;8.812;2023-05-16T05:22:16;12.10;99.90
33837;DHT22;20140;49.356;8.812;2023-05-16T05:24:41;12.10;99.90
33837;DHT22;20140;49.356;8.812;2023-05-16T05:27:07;12.20;99.90
33837;DHT22;20140;49.356;8.812;2023-05-16T05:29:35;12.20;99.90
33837;DHT22;20140;49.356;8.812;2023-05-16T05:32:00;12.20;99.90
33837;DHT22;20140;49.356;8.812;2023-05-16T05:34:26;12.20;99.90
33837;DHT22;20140;49.356;8.812;2023-05-16T05:36:51;12.20;99.90
33837;DHT22;20140;49.356;8.812;2023-05-16T05:39:17;12.20;99.90
33837;DHT22;20140;49.356;8.812;2023-05-16T05:41:42;12.20;99.90
33837;DHT22;20140;49.356;8.812;2023-05-16T05:44:08;12.20;99.90
33837;DHT22;20140;49.356;8.812;2023-05-16T05:46:33;12.20;99.90
33837;DHT22;20140;49.356;8.812;2023-05-16T05:49:00;12.00;99.90
33837;DHT22;20140;49.356;8.812;2023-05-16T05:51:25;12.00;99.90
33837;DHT22;20140;49.356;8.812;2023-05-16T05:53:51;11.90;99.90
33837;DHT22;20140;49.356;8.812;2023-05-16T05:56:17;12.00;99.90
33837;DHT22;20140;49.356;8.812;2023-05-16T05:58:43;12.10;99.90
33837;DHT22;20140;49.356;8.812;2023-05-16T06:01:10;12.10;99.90
33837;DHT22;20140;49.356;8.812;2023-05-16T06:03:36;12.10;99.90
33837;DHT22;20140;49.356;8.812;2023-05-16T06:06:02;12.10;99.90
33837;DHT22;20140;49.356;8.812;2023-05-16T06:08:28;12.00;99.90
33837;DHT22;20140;49.356;8.812;2023-05-16T06:10:53;12.00;99.90
33837;DHT22;20140;49.356;8.812;2023-05-16T06:13:19;11.80;99.90
33837;DHT22;20140;49.356;8.812;2023-05-16T06:15:49;11.80;99.90
33837;DHT22;20140;49.356;8.812;2023-05-16T06:18:15;11.80;99.90
33837;DHT22;20140;49.356;8.812;2023-05-16T06:20:41;11.80;99.90
33837;DHT22;20140;49.356;8.812;2023-05-16T06:23:06;12.00;99.90
33837;DHT22;20140;49.356;8.812;2023-05-16T06:25:32;12.00;99.90
33837;DHT22;20140;49.356;8.812;2023-05-16T06:27:57;11.90;99.90
33837;DHT22;20140;49.356;8.812;2023-05-16T06:30:23;12.00;99.90
33837;DHT22;20140;49.356;8.812;2023-05-16T06:32:48;12.10;99.90
33837;DHT22;20140;49.356;8.812;2023-05-16T06:35:14;12.20;99.90
33837;DHT22;20140;49.356;8.812;2023-05-16T06:37:40;12.20;99.90
33837;DHT22;20140;49.356;8.812;2023-05-16T06:40:06;12.10;99.90
33837;DHT22;20140;49.356;8.812;2023-05-16T06:42:32;12.10;99.90
33837;DHT22;20140;49.356;8.812;2023-05-16T06:44:57;11.90;99.90
33837;DHT22;20140;49.356;8.812;2023-05-16T06:47:23;11.90;99.90
33837;DHT22;20140;49.356;8.812;2023-05-16T06:49:48;11.90;99.90
33837;DHT22;20140;49.356;8.812;2023-05-16T06:52:15;12.10;99.90
33837;DHT22;20140;49.356;8.812;2023-05-16T06:54:40;12.10;99.90
33837;DHT22;20140;49.356;8.812;2023-05-16T06:57:06;12.10;99.90
33837;DHT22;20140;49.356;8.812;2023-05-16T06:59:33;12.20;99.90
33837;DHT22;20140;49.356;8.812;2023-05-16T07:01:59;12.20;99.90
33837;DHT22;20140;49.356;8.812;2023-05-16T07:04:25;12.30;99.90
33837;DHT22;20140;49.356;8.812;2023-05-16T07:06:51;12.20;99.90
33837;DHT22;20140;49.356;8.812;2023-05-16T07:09:17;12.40;99.90
33837;DHT22;20140;49.356;8.812;2023-05-16T07:11:42;12.40;99.90
33837;DHT22;20140;49.356;8.812;2023-05-16T07:14:08;12.50;99.90
33837;DHT22;20140;49.356;8.812;2023-05-16T07:16:34;12.50;99.90
33837;DHT22;20140;49.356;8.812;2023-05-16T07:18:59;12.50;99.90
33837;DHT22;20140;49.356;8.812;2023-05-16T07:21:25;12.50;99.90
33837;DHT22;20140;49.356;8.812;2023-05-16T07:23:51;12.50;99.90
33837;DHT22;20140;49.356;8.812;2023-05-16T07:26:17;12.60;99.90
33837;DHT22;20140;49.356;8.812;2023-05-16T07:28:42;12.70;99.90
33837;DHT22;20140;49.356;8.812;2023-05-16T07:31:08;12.70;99.90
33837;DHT22;20140;49.356;8.812;2023-05-16T07:33:34;12.60;99.90
33837;DHT22;20140;49.356;8.812;2023-05-16T07:35:59;12.50;99.90
33837;DHT22;20140;49.356;8.812;2023-05-16T07:38:25;12.80;99.90
33837;DHT22;20140;49.356;8.812;2023-05-16T07:40:51;12.80;99.90
33837;DHT22;20140;49.356;8.812;2023-05-16T07:43:17;13.00;99.90
33837;DHT22;20140;49.356;8.812;2023-05-16T07:45:42;13.00;99.90
33837;DHT22;20140;49.356;8.812;2023-05-16T07:48:08;12.90;99.90
33837;DHT22;20140;49.356;8.812;2023-05-16T07:50:34;12.90;99.90
33837;DHT22;20140;49.356;8.812;2023-05-16T07:52:59;13.00;99.90
33837;DHT22;20140;49.356;8.812;2023-05-16T07:55:25;13.00;99.90
33837;DHT22;20140;49.356;8.812;2023-05-16T07:57:50;12.90;99.90
33837;DHT22;20140;49.356;8.812;2023-05-16T08:00:16;12.90;99.90
33837;DHT22;20140;49.356;8.812;2023-05-16T08:02:42;12.90;99.90
33837;DHT22;20140;49.356;8.812;2023-05-16T08:05:08;12.80;99.90
33837;DHT22;20140;49.356;8.812;2023-05-16T08:07:34;12.70;99.90
33837;DHT22;20140;49.356;8.812;2023-05-16T08:09:59;12.80;99.90
33837;DHT22;20140;49.356;8.812;2023-05-16T08:12:25;12.90;99.90
33837;DHT22;20140;49.356;8.812;2023-05-16T08:14:51;12.80;99.90
33837;DHT22;20140;49.356;8.812;2023-05-16T08:17:17;12.80;99.90
33837;DHT22;20140;49.356;8.812;2023-05-16T08:19:42;12.70;99.90
33837;DHT22;20140;49.356;8.812;2023-05-16T08:22:08;12.70;99.90
33837;DHT22;20140;49.356;8.812;2023-05-16T08:24:34;12.80;99.90
33837;DHT22;20140;49.356;8.812;2023-05-16T08:27:00;12.90;99.90
33837;DHT22;20140;49.356;8.812;2023-05-16T08:29:25;13.00;99.90
33837;DHT22;20140;49.356;8.812;2023-05-16T08:31:51;13.00;99.90
33837;DHT22;20140;49.356;8.812;2023-05-16T08:34:17;12.80;99.90
33837;DHT22;20140;49.356;8.812;2023-05-16T08:36:42;12.70;99.90
33837;DHT22;20140;49.356;8.812;2023-05-16T08:39:08;12.80;99.90
33837;DHT22;20140;49.356;8.812;2023-05-16T08:41:36;13.00;99.90
33837;DHT22;20140;49.356;8.812;2023-05-16T08:44:01;12.90;99.90
33837;DHT22;20140;49.356;8.812;2023-05-16T08:46:28;13.10;99.90
33837;DHT22;20140;49.356;8.812;2023-05-16T08:48:57;12.80;99.90
33837;DHT22;20140;49.356;8.812;2023-05-16T08:51:24;13.20;99.90
33837;DHT22;20140;49.356;8.812;2023-05-16T08:53:55;13.10;99.90
33837;DHT22;20140;49.356;8.812;2023-05-16T08:56:22;13.20;99.90
33837;DHT22;20140;49.356;8.812;2023-05-16T08:58:49;13.10;99.90
33837;DHT22;20140;49.356;8.812;2023-05-16T09:01:16;13.30;99.90
33837;DHT22;20140;49.356;8.812;2023-05-16T09:03:41;13.20;99.90
33837;DHT22;20140;49.356;8.812;2023-05-16T09:06:07;13.60;99.90
33837;DHT22;20140;49.356;8.812;2023-05-16T09:08:33;13.50;99.90
33837;DHT22;20140;49.356;8.812;2023-05-16T09:11:00;13.30;99.90
33837;DHT22;20140;49.356;8.812;2023-05-16T09:13:26;13.30;99.90
33837;DHT22;20140;49.356;8.812;2023-05-16T09:16:16;13.10;99.90
33837;DHT22;20140;49.356;8.812;2023-05-16T09:18:44;13.00;99.90
33837;DHT22;20140;49.356;8.812;2023-05-16T09:21:12;13.00;99.90
33837;DHT22;20140;49.356;8.812;2023-05-16T09:23:37;13.20;99.90
33837;DHT22;20140;49.356;8.812;2023-05-16T09:26:04;13.40;99.90
33837;DHT22;20140;49.356;8.812;2023-05-16T09:28:32;13.40;99.90
33837;DHT22;20140;49.356;8.812;2023-05-16T09:30:58;12.80;99.90
33837;DHT22;20140;49.356;8.812;2023-05-16T09:33:28;13.00;99.90
33837;DHT22;20140;49.356;8.812;2023-05-16T09:35:55;13.20;99.90
33837;DHT22;20140;49.356;8.812;2023-05-16T09:38:21;13.60;99.90
33837;DHT22;20140;49.356;8.812;2023-05-16T09:40:47;13.50;99.90
33837;DHT22;20140;49.356;8.812;2023-05-16T09:43:15;13.80;99.90
33837;DHT22;20140;49.356;8.812;2023-05-16T09:45:44;13.80;99.90
33837;DHT22;20140;49.356;8.812;2023-05-16T09:48:11;13.70;99.90
33837;DHT22;20140;49.356;8.812;2023-05-16T09:50:40;13.70;99.90
33837;DHT22;20140;49.356;8.812;2023-05-16T09:53:12;13.80;99.90
33837;DHT22;20140;49.356;8.812;2023-05-16T09:55:38;13.80;99.90
33837;DHT22;20140;49.356;8.812;2023-05-16T09:58:03;13.60;99.90
33837;DHT22;20140;49.356;8.812;2023-05-16T10:00:30;14.00;99.90
33837;DHT22;20140;49.356;8.812;2023-05-16T10:02:57;13.80;99.90
33837;DHT22;20140;49.356;8.812;2023-05-16T10:05:26;14.10;99.90
33837;DHT22;20140;49.356;8.812;2023-05-16T10:07:55;14.10;99.90
33837;DHT22;20140;49.356;8.812;2023-05-16T10:10:22;14.10;99.90
33837;DHT22;20140;49.356;8.812;2023-05-16T10:12:47;14.10;99.90
33837;DHT22;20140;49.356;8.812;2023-05-16T10:15:15;14.40;99.90
33837;DHT22;20140;49.356;8.812;2023-05-16T10:17:42;14.10;99.90
33837;DHT22;20140;49.356;8.812;2023-05-16T10:20:10;13.90;99.90
33837;DHT22;20140;49.356;8.812;2023-05-16T10:22:41;13.30;99.90
33837;DHT22;20140;49.356;8.812;2023-05-16T10:27:47;13.40;99.90
33837;DHT22;20140;49.356;8.812;2023-05-16T10:30:13;13.50;99.90
33837;DHT22;20140;49.356;8.812;2023-05-16T10:32:42;13.40;99.90
33837;DHT22;20140;49.356;8.812;2023-05-16T10:35:09;13.50;99.90
33837;DHT22;20140;49.356;8.812;2023-05-16T10:37:35;13.70;99.90
33837;DHT22;20140;49.356;8.812;2023-05-16T10:40:03;14.00;99.90
33837;DHT22;20140;49.356;8.812;2023-05-16T10:42:33;14.10;99.90
33837;DHT22;20140;49.356;8.812;2023-05-16T10:47:54;13.40;99.90
33837;DHT22;20140;49.356;8.812;2023-05-16T10:50:40;13.60;99.90
33837;DHT22;20140;49.356;8.812;2023-05-16T10:53:35;13.70;99.90
33837;DHT22;20140;49.356;8.812;2023-05-16T11:09:04;13.10;99.90
33837;DHT22;20140;49.356;8.812;2023-05-16T11:16:50;14.00;99.90
33837;DHT22;20140;49.356;8.812;2023-05-16T11:19:44;13.80;99.90
33837;DHT22;20140;49.356;8.812;2023-05-16T11:27:30;13.80;99.90
33837;DHT22;20140;49.356;8.812;2023-05-16T11:32:26;13.40;99.90
33837;DHT22;20140;49.356;8.812;2023-05-16T11:34:52;13.50;99.90
33837;DHT22;20140;49.356;8.812;2023-05-16T11:37:19;13.60;99.90
33837;DHT22;20140;49.356;8.812;2023-05-16T11:39:45;13.40;99.90
33837;DHT22;20140;49.356;8.812;2023-05-16T11:42:11;13.50;99.90
33837;DHT22;20140;49.356;8.812;2023-05-16T11:44:38;13.50;99.90
33837;DHT22;20140;49.356;8.812;2023-05-16T11:47:04;13.70;99.90
33837;DHT22;20140;49.356;8.812;2023-05-16T11:49:30;13.50;99.90
33837;DHT22;20140;49.356;8.812;2023-05-16T11:51:56;13.70;99.90
33837;DHT22;20140;49.356;8.812;2023-05-16T11:54:22;13.50;99.90
33837;DHT22;20140;49.356;8.812;2023-05-16T11:56:49;13.80;99.90
33837;DHT22;20140;49.356;8.812;2023-05-16T11:59:16;13.90;99.90
33837;DHT22;20140;49.356;8.812;2023-05-16T12:01:41;13.80;99.90
33837;DHT22;20140;49.356;8.812;2023-05-16T12:04:11;13.80;99.90
33837;DHT22;20140;49.356;8.812;2023-05-16T12:06:38;13.70;99.90
33837;DHT22;20140;49.356;8.812;2023-05-16T12:09:05;13.80;99.90
33837;DHT22;20140;49.356;8.812;2023-05-16T12:11:38;13.50;99.90
33837;DHT22;20140;49.356;8.812;2023-05-16T12:14:06;13.60;99.90
33837;DHT22;20140;49.356;8.812;2023-05-16T12:16:32;13.50;99.90
33837;DHT22;20140;49.356;8.812;2023-05-16T12:18:58;13.70;99.90
33837;DHT22;20140;49.356;8.812;2023-05-16T12:21:25;14.00;99.90
33837;DHT22;20140;49.356;8.812;2023-05-16T12:23:54;14.00;99.90
33837;DHT22;20140;49.356;8.812;2023-05-16T12:26:28;14.60;99.90
33837;DHT22;20140;49.356;8.812;2023-05-16T12:28:58;14.40;99.90
33837;DHT22;20140;49.356;8.812;2023-05-16T12:31:28;14.60;99.90
33837;DHT22;20140;49.356;8.812;2023-05-16T12:33:55;14.50;99.90
33837;DHT22;20140;49.356;8.812;2023-05-16T12:36:21;13.90;99.90
33837;DHT22;20140;49.356;8.812;2023-05-16T12:38:48;14.30;99.90
33837;DHT22;20140;49.356;8.812;2023-05-16T12:41:21;14.30;99.90
33837;DHT22;20140;49.356;8.812;2023-05-16T12:43:47;14.20;99.90
33837;DHT22;20140;49.356;8.812;2023-05-16T12:46:13;14.50;99.90
33837;DHT22;20140;49.356;8.812;2023-05-16T12:48:39;15.40;99.90
33837;DHT22;20140;49.356;8.812;2023-05-16T12:51:14;15.40;99.90
33837;DHT22;20140;49.356;8.812;2023-05-16T12:53:41;14.90;99.90
33837;DHT22;20140;49.356;8.812;2023-05-16T12:56:07;15.10;99.90
33837;DHT22;20140;49.356;8.812;2023-05-16T12:58:33;14.20;99.90
33837;DHT22;20140;49.356;8.812;2023-05-16T13:00:58;14.60;99.90
33837;DHT22;20140;49.356;8.812;2023-05-16T13:03:24;14.60;99.90
33837;DHT22;20140;49.356;8.812;2023-05-16T13:05:49;14.70;99.90
33837;DHT22;20140;49.356;8.812;2023-05-16T13:08:15;14.40;99.90
33837;DHT22;20140;49.356;8.812;2023-05-16T13:10:41;14.30;99.90
33837;DHT22;20140;49.356;8.812;2023-05-16T13:13:07;14.10;99.90
33837;DHT22;20140;49.356;8.812;2023-05-16T13:15:32;14.30;99.90
33837;DHT22;20140;49.356;8.812;2023-05-16T13:18:00;14.30;99.90
33837;DHT22;20140;49.356;8.812;2023-05-16T13:20:26;14.30;99.90
33837;DHT22;20140;49.356;8.812;2023-05-16T13:22:53;14.40;99.90
33837;DHT22;20140;49.356;8.812;2023-05-16T13:25:20;14.40;99.90
33837;DHT22;20140;49.356;8.812;2023-05-16T13:27:45;14.50;99.90
33837;DHT22;20140;49.356;8.812;2023-05-16T13:30:13;14.60;99.90
33837;DHT22;20140;49.356;8.812;2023-05-16T13:32:39;14.10;99.90
33837;DHT22;20140;49.356;8.812;2023-05-16T13:35:05;14.40;99.90
33837;DHT22;20140;49.356;8.812;2023-05-16T13:37:31;14.10;99.90
33837;DHT22;20140;49.356;8.812;2023-05-16T13:39:57;14.00;99.90
33837;DHT22;20140;49.356;8.812;2023-05-16T13:42:22;14.20;99.90
33837;DHT22;20140;49.356;8.812;2023-05-16T13:44:48;14.10;99.90
33837;DHT22;20140;49.356;8.812;2023-05-16T13:47:14;14.20;99.90
33837;DHT22;20140;49.356;8.812;2023-05-16T13:49:40;14.20;99.90
33837;DHT22;20140;49.356;8.812;2023-05-16T13:52:06;14.10;99.90
33837;DHT22;20140;49.356;8.812;2023-05-16T13:54:31;14.70;99.90
33837;DHT22;20140;49.356;8.812;2023-05-16T13:56:57;14.40;99.90
33837;DHT22;20140;49.356;8.812;2023-05-16T13:59:23;14.40;99.90
33837;DHT22;20140;49.356;8.812;2023-05-16T14:01:48;14.50;99.90
33837;DHT22;20140;49.356;8.812;2023-05-16T14:04:15;14.90;99.90
33837;DHT22;20140;49.356;8.812;2023-05-16T14:06:40;15.00;99.90
33837;DHT22;20140;49.356;8.812;2023-05-16T14:09:06;14.70;99.90
33837;DHT22;20140;49.356;8.812;2023-05-16T14:11:32;14.70;99.90
33837;DHT22;20140;49.356;8.812;2023-05-16T14:13:58;15.10;99.90
33837;DHT22;20140;49.356;8.812;2023-05-16T14:16:24;15.30;99.90
33837;DHT22;20140;49.356;8.812;2023-05-16T14:18:50;15.30;99.90
33837;DHT22;20140;49.356;8.812;2023-05-16T14:21:15;15.00;99.90
33837;DHT22;20140;49.356;8.812;2023-05-16T14:23:41;15.10;99.90
33837;DHT22;20140;49.356;8.812;2023-05-16T14:26:06;15.90;99.90
33837;DHT22;20140;49.356;8.812;2023-05-16T14:28:32;15.70;99.90
33837;DHT22;20140;49.356;8.812;2023-05-16T14:30:58;15.50;99.90
33837;DHT22;20140;49.356;8.812;2023-05-16T14:33:24;16.20;99.50
33837;DHT22;20140;49.356;8.812;2023-05-16T14:35:50;15.40;99.90
33837;DHT22;20140;49.356;8.812;2023-05-16T14:38:16;15.10;99.90
33837;DHT22;20140;49.356;8.812;2023-05-16T14:40:42;15.00;99.90
33837;DHT22;20140;49.356;8.812;2023-05-16T14:43:07;15.30;99.90
33837;DHT22;20140;49.356;8.812;2023-05-16T14:45:33;15.70;98.50
33837;DHT22;20140;49.356;8.812;2023-05-16T14:47:59;15.70;94.60
33837;DHT22;20140;49.356;8.812;2023-05-16T14:50:24;15.10;96.30
33837;DHT22;20140;49.356;8.812;2023-05-16T14:52:50;15.50;97.40
33837;DHT22;20140;49.356;8.812;2023-05-16T14:55:17;15.60;97.50
33837;DHT22;20140;49.356;8.812;2023-05-16T14:57:42;16.70;98.40
33837;DHT22;20140;49.356;8.812;2023-05-16T15:00:09;17.70;96.60
33837;DHT22;20140;49.356;8.812;2023-05-16T15:02:35;17.40;97.30
33837;DHT22;20140;49.356;8.812;2023-05-16T15:05:00;18.10;95.40
33837;DHT22;20140;49.356;8.812;2023-05-16T15:07:26;18.30;94.80
33837;DHT22;20140;49.356;8.812;2023-05-16T15:09:51;18.20;92.80
33837;DHT22;20140;49.356;8.812;2023-05-16T15:12:17;17.10;95.20
33837;DHT22;20140;49.356;8.812;2023-05-16T15:14:42;16.30;95.90
33837;DHT22;20140;49.356;8.812;2023-05-16T15:17:08;16.60;97.70
33837;DHT22;20140;49.356;8.812;2023-05-16T15:19:33;16.40;96.50
33837;DHT22;20140;49.356;8.812;2023-05-16T15:21:59;17.00;96.20
33837;DHT22;20140;49.356;8.812;2023-05-16T15:24:24;17.30;94.80
33837;DHT22;20140;49.356;8.812;2023-05-16T15:26:50;17.20;97.10
33837;DHT22;20140;49.356;8.812;2023-05-16T15:29:16;17.10;93.70
33837;DHT22;20140;49.356;8.812;2023-05-16T15:31:43;17.30;93.20
33837;DHT22;20140;49.356;8.812;2023-05-16T15:34:09;17.50;93.00
33837;DHT22;20140;49.356;8.812;2023-05-16T15:36:35;19.00;86.70
33837;DHT22;20140;49.356;8.812;2023-05-16T15:39:01;17.70;90.80
33837;DHT22;20140;49.356;8.812;2023-05-16T15:41:26;17.80;92.10
33837;DHT22;20140;49.356;8.812;2023-05-16T15:43:52;17.40;90.10
33837;DHT22;20140;49.356;8.812;2023-05-16T15:46:17;17.70;89.60
33837;DHT22;20140;49.356;8.812;2023-05-16T15:48:43;18.10;93.10
33837;DHT22;20140;49.356;8.812;2023-05-16T15:51:12;18.10;90.60
33837;DHT22;20140;49.356;8.812;2023-05-16T15:53:37;18.40;90.50
33837;DHT22;20140;49.356;8.812;2023-05-16T15:56:04;18.10;83.20
33837;DHT22;20140;49.356;8.812;2023-05-16T15:58:30;17.50;82.40
33837;DHT22;20140;49.356;8.812;2023-05-16T16:00:55;16.80;81.60
33837;DHT22;20140;49.356;8.812;2023-05-16T16:03:21;16.50;84.90
33837;DHT22;20140;49.356;8.812;2023-05-16T16:05:47;16.30;84.80
33837;DHT22;20140;49.356;8.812;2023-05-16T16:08:13;16.80;90.30
33837;DHT22;20140;49.356;8.812;2023-05-16T16:10:39;16.60;86.30
33837;DHT22;20140;49.356;8.812;2023-05-16T16:13:05;16.30;84.90